»·PEaware :: UAL1572 KSFO-KSAN

UAL1572 :: KSFO-KSAN

FLIGHT INFORMATION

Flight Status: Arrived
Operator:
United Airlines
More flights by this operator :: More flights under this callsign
Pilot: Vlad D. (11271)
Aircraft: BOEING 737-300
(B733)
More flights by this aircraft type
Origin: KSFO San Francisco Intl
United States
Destination: KSAN San Diego Intl-Lindbergh
United States
More flights between these airports :: More routes between these airports
Route: +OFFSH9 MCKEY LAX +BAYVU4
File this flight plan on PilotEdge
Remarks:
Altitude:
(Current/Filed)
35,000ft
Speed:
(Current/Filed)
440kts
Departed: 08-Jun-16 08:41 AM
Arrived: 08-Jun-16 09:57 AM
Distance/Time
Traveled:
387nm/1:16
Distance/Time
To Go:
Arrived

Flight Plot

Page will automatically refresh every two minutes.


Map Options




Map Legend


Flown Route
Filed Route
Departure Airport
Arrival Airport
Navaid (VOR, NDB)
Fix

Horizontal Profiles

Position Reports

Time Latitude Longitude Heading Altitude Ground
Speed
08-Jun-16 07:39 37.617684 -122.388841 159 30ft 0kts
08-Jun-16 07:40 37.617684 -122.388841 159 30ft 0kts
08-Jun-16 07:41 37.617684 -122.388841 159 30ft 0kts
08-Jun-16 07:42 37.617684 -122.388841 159 30ft 0kts
08-Jun-16 07:43 37.617684 -122.388841 159 30ft 0kts
08-Jun-16 07:44 37.617684 -122.388841 159 30ft 0kts
08-Jun-16 07:45 37.617684 -122.388841 159 30ft 0kts
08-Jun-16 07:46 37.617684 -122.388841 159 30ft 0kts
08-Jun-16 07:47 37.617684 -122.388841 159 30ft 0kts
08-Jun-16 07:48 37.617684 -122.388841 159 30ft 0kts
08-Jun-16 07:49 37.617684 -122.388841 159 30ft 0kts
08-Jun-16 07:50 37.617684 -122.388841 159 30ft 0kts
08-Jun-16 07:51 37.617684 -122.388841 159 30ft 0kts
08-Jun-16 07:52 37.617684 -122.388841 159 30ft 0kts
08-Jun-16 07:53 37.617684 -122.388841 159 30ft 0kts
08-Jun-16 07:54 37.617684 -122.388841 159 30ft 0kts
08-Jun-16 07:55 37.617684 -122.388841 159 30ft 0kts
08-Jun-16 07:56 37.617684 -122.388841 159 30ft 0kts
08-Jun-16 07:57 37.617684 -122.388841 159 30ft 0kts
08-Jun-16 07:58 37.617684 -122.388841 159 30ft 0kts
08-Jun-16 07:59 37.617684 -122.388841 159 30ft 0kts
08-Jun-16 08:00 37.617684 -122.388841 159 30ft 0kts
08-Jun-16 08:01 37.617684 -122.388841 159 30ft 0kts
08-Jun-16 08:02 37.617684 -122.388841 159 30ft 0kts
08-Jun-16 08:03 37.617684 -122.388841 159 30ft 0kts
08-Jun-16 08:04 37.617684 -122.388841 159 30ft 0kts
08-Jun-16 08:05 37.617684 -122.388841 159 30ft 0kts
08-Jun-16 08:06 37.617684 -122.388841 159 30ft 0kts
08-Jun-16 08:07 37.617684 -122.388841 159 30ft 0kts
08-Jun-16 08:08 37.617684 -122.388841 159 30ft 0kts
08-Jun-16 08:09 37.617684 -122.388841 159 30ft 0kts
08-Jun-16 08:10 37.617684 -122.388841 159 30ft 0kts
08-Jun-16 08:11 37.617684 -122.388841 159 30ft 0kts
08-Jun-16 08:12 37.617684 -122.388841 159 30ft 0kts
08-Jun-16 08:13 37.617684 -122.388841 159 30ft 0kts
08-Jun-16 08:14 37.618055 -122.389018 159 30ft 0kts
08-Jun-16 08:15 37.618330 -122.389273 322 30ft 0kts
08-Jun-16 08:16 37.618881 -122.390301 297 30ft 0kts
08-Jun-16 08:17 37.619350 -122.391459 297 30ft 0kts
08-Jun-16 08:18 37.619350 -122.391459 297 30ft 0kts
08-Jun-16 08:19 37.619350 -122.391459 297 30ft 0kts
08-Jun-16 08:20 37.619350 -122.391459 297 30ft 0kts
08-Jun-16 08:21 37.619350 -122.391459 297 30ft 0kts
08-Jun-16 08:22 37.619350 -122.391459 297 30ft 0kts
08-Jun-16 08:23 37.619350 -122.391459 297 30ft 0kts
08-Jun-16 08:24 37.619350 -122.391459 297 30ft 0kts
08-Jun-16 08:25 37.619368 -122.391505 297 30ft 0kts
08-Jun-16 08:26 37.619852 -122.392621 296 30ft 6kts
08-Jun-16 08:27 37.622163 -122.391047 46 28ft 12kts
08-Jun-16 08:28 37.621869 -122.387277 118 30ft 11kts
08-Jun-16 08:29 37.620485 -122.384008 117 30ft 10kts
08-Jun-16 08:30 37.619060 -122.380586 117 30ft 11kts
08-Jun-16 08:31 37.616118 -122.379969 207 30ft 11kts
08-Jun-16 08:32 37.613290 -122.381859 207 30ft 11kts
08-Jun-16 08:33 37.610626 -122.383621 207 30ft 10kts
08-Jun-16 08:34 37.608641 -122.384284 118 30ft 10kts
08-Jun-16 08:35 37.608516 -122.383987 117 30ft 0kts
08-Jun-16 08:36 37.608511 -122.383973 117 30ft 0kts
08-Jun-16 08:37 37.608652 -122.382438 31 28ft 11kts
08-Jun-16 08:38 37.632588 -122.368266 355 884ft 171kts
08-Jun-16 08:39 37.682606 -122.391760 294 3141ft 237kts
08-Jun-16 08:40 37.647549 -122.451746 198 6772ft 271kts
08-Jun-16 08:41 37.579149 -122.484281 223 10606ft 269kts
08-Jun-16 08:42 37.523358 -122.546135 224 14156ft 277kts
08-Jun-16 08:43 37.459349 -122.618436 224 16165ft 334kts
08-Jun-16 08:44 37.382130 -122.684561 191 19184ft 359kts
08-Jun-16 08:45 37.279811 -122.662483 173 21838ft 385kts
08-Jun-16 08:46 37.173556 -122.632585 173 24250ft 399kts
08-Jun-16 08:47 37.063893 -122.601712 173 26288ft 416kts
08-Jun-16 08:48 36.951977 -122.570183 173 28944ft 409kts
08-Jun-16 08:49 36.842168 -122.539752 175 31240ft 403kts
08-Jun-16 08:50 36.733105 -122.511436 175 32858ft 411kts
08-Jun-16 08:51 36.623854 -122.483117 175 34374ft 413kts
08-Jun-16 08:52 36.517273 -122.455114 175 35051ft 414kts
08-Jun-16 08:53 36.407731 -122.414804 145 35038ft 438kts
08-Jun-16 08:54 36.330847 -122.297217 137 35041ft 451kts
08-Jun-16 08:55 36.264271 -122.198557 137 35046ft 450kts
08-Jun-16 08:56 36.194322 -122.096880 138 35045ft 450kts
08-Jun-16 08:57 36.131237 -122.005577 138 35045ft 450kts
08-Jun-16 08:58 36.062370 -121.905359 137 35046ft 450kts
08-Jun-16 08:59 35.981265 -121.788221 138 35046ft 449kts
08-Jun-16 09:00 35.900003 -121.671930 137 35046ft 449kts
08-Jun-16 09:01 35.818839 -121.556146 136 35033ft 446kts
08-Jun-16 09:02 35.738080 -121.441355 134 35021ft 443kts
08-Jun-16 09:03 35.658065 -121.327837 134 35015ft 444kts
08-Jun-16 09:04 35.577433 -121.213255 134 35018ft 448kts
08-Jun-16 09:05 35.495498 -121.097952 134 35017ft 451kts
08-Jun-16 09:06 35.419939 -120.976853 127 34998ft 453kts
08-Jun-16 09:07 35.361651 -120.873877 127 34985ft 453kts
08-Jun-16 09:08 35.290193 -120.747926 127 34982ft 453kts
08-Jun-16 09:09 35.218539 -120.622092 127 34981ft 453kts
08-Jun-16 09:10 35.146681 -120.496354 127 34983ft 452kts
08-Jun-16 09:11 35.074673 -120.370800 127 34989ft 451kts
08-Jun-16 09:12 35.003642 -120.246411 127 34991ft 450kts
08-Jun-16 09:13 34.931551 -120.121560 127 34994ft 452kts
08-Jun-16 09:14 34.859205 -119.996749 127 34999ft 453kts
08-Jun-16 09:15 34.786565 -119.871866 127 34994ft 453kts
08-Jun-16 09:16 34.714076 -119.747681 127 34975ft 452kts
08-Jun-16 09:17 34.641205 -119.623278 127 34973ft 452kts
08-Jun-16 09:18 34.568386 -119.499398 127 34972ft 452kts
08-Jun-16 09:19 34.495236 -119.375379 127 34972ft 452kts
08-Jun-16 09:20 34.422901 -119.252247 128 34973ft 452kts
08-Jun-16 09:21 34.349816 -119.129141 128 34977ft 452kts
08-Jun-16 09:22 34.276438 -119.006021 128 34981ft 453kts
08-Jun-16 09:23 34.202815 -118.882909 128 34981ft 455kts
08-Jun-16 09:24 34.128664 -118.759340 127 34982ft 455kts
08-Jun-16 09:25 34.054307 -118.635848 127 34980ft 456kts
08-Jun-16 09:26 33.979674 -118.512317 127 34619ft 456kts
08-Jun-16 09:27 33.902806 -118.393456 134 32555ft 446kts
08-Jun-16 09:28 33.818018 -118.284582 134 31345ft 454kts
08-Jun-16 09:29 33.731836 -118.174194 134 29754ft 454kts
08-Jun-16 09:30 33.645484 -118.064081 133 28169ft 455kts
08-Jun-16 09:31 33.558563 -117.953586 133 26576ft 456kts
08-Jun-16 09:32 33.475983 -117.848934 133 25760ft 419kts
08-Jun-16 09:33 33.392022 -117.744978 133 23119ft 428kts
08-Jun-16 09:34 33.312396 -117.645133 132 20623ft 401kts
08-Jun-16 09:35 33.234888 -117.555108 143 18280ft 384kts
08-Jun-16 09:36 33.150756 -117.481798 143 16184ft 362kts
08-Jun-16 09:37 33.065551 -117.412152 145 12870ft 362kts
08-Jun-16 09:38 32.999836 -117.359582 145 11449ft 320kts
08-Jun-16 09:39 32.919664 -117.294992 145 9800ft 289kts
08-Jun-16 09:40 32.866210 -117.251187 146 8643ft 279kts
08-Jun-16 09:41 32.805327 -117.179507 107 7073ft 265kts
08-Jun-16 09:42 32.786880 -117.110943 107 6656ft 270kts
08-Jun-16 09:43 32.764458 -117.027712 107 5278ft 265kts
08-Jun-16 09:44 32.743645 -116.951393 107 5020ft 211kts
08-Jun-16 09:45 32.726910 -116.890188 107 4960ft 194kts
08-Jun-16 09:46 32.683264 -116.871572 191 4995ft 196kts
08-Jun-16 09:47 32.646107 -116.905628 284 4974ft 194kts
08-Jun-16 09:48 32.671532 -116.959124 257 4085ft 187kts
08-Jun-16 09:49 32.686413 -117.012048 296 3947ft 178kts
08-Jun-16 09:50 32.702847 -117.062609 285 2691ft 152kts
08-Jun-16 09:51 32.715775 -117.116396 283 1584ft 139kts
08-Jun-16 09:52 32.724688 -117.152250 283 654ft 134kts
08-Jun-16 09:53 32.734191 -117.192420 287 20ft 94kts
08-Jun-16 09:54 32.736069 -117.202008 201 17ft 8kts
08-Jun-16 09:55 32.735621 -117.202173 195 17ft 4kts
08-Jun-16 09:56 32.734592 -117.203293 233 17ft 0kts
08-Jun-16 09:57 32.734568 -117.203331 233 17ft 0kts
08-Jun-16 09:58 32.734568 -117.203331 233 17ft 0kts

Navigation Log

Ident Type
Flight plan parsing failed, navigation log unavailable